createdAt,value
2018-09-03T00:00:08.410Z,15.30
2018-09-03T00:03:07.170Z,15.30
2018-09-03T00:06:04.735Z,15.30
2018-09-03T00:09:02.363Z,15.30
2018-09-03T00:12:00.125Z,15.30
2018-09-03T00:14:57.739Z,15.30
2018-09-03T00:17:55.558Z,15.30
2018-09-03T00:20:53.356Z,15.30
2018-09-03T00:23:51.166Z,15.30
2018-09-03T00:26:49.022Z,15.20
2018-09-03T00:29:46.726Z,15.10
2018-09-03T00:32:50.496Z,15.10
2018-09-03T00:38:01.034Z,15.10
2018-09-03T00:41:04.691Z,15.10
2018-09-03T00:44:08.466Z,15.00
2018-09-03T00:47:08.374Z,15.10
2018-09-03T00:50:05.988Z,15.10
2018-09-03T00:53:03.900Z,15.10
2018-09-03T00:56:01.639Z,15.00
2018-09-03T00:58:59.641Z,15.00
2018-09-03T01:01:57.490Z,15.00
2018-09-03T01:04:55.115Z,15.00
2018-09-03T01:07:52.806Z,15.00
2018-09-03T01:10:50.467Z,15.00
2018-09-03T01:13:48.183Z,15.00
2018-09-03T01:16:45.850Z,15.00
2018-09-03T01:19:43.627Z,15.10
2018-09-03T01:22:41.663Z,15.10
2018-09-03T01:25:39.539Z,15.00
2018-09-03T01:28:37.217Z,14.90
2018-09-03T01:31:34.819Z,14.90
2018-09-03T01:34:33.558Z,15.00
2018-09-03T01:37:31.206Z,15.10
2018-09-03T01:40:28.709Z,15.10
2018-09-03T01:43:26.344Z,15.00
2018-09-03T01:46:24.063Z,14.90
2018-09-03T01:49:22.039Z,14.80
2018-09-03T01:52:20.852Z,14.70
2018-09-03T01:55:18.770Z,14.60
2018-09-03T01:58:16.500Z,14.60
2018-09-03T02:01:14.202Z,14.50
2018-09-03T02:04:11.863Z,14.50
2018-09-03T02:07:09.421Z,14.50
2018-09-03T02:10:06.842Z,14.50
2018-09-03T02:13:04.520Z,14.60
2018-09-03T02:19:16.665Z,14.50
2018-09-03T02:22:14.568Z,14.50
2018-09-03T02:25:12.267Z,14.50
2018-09-03T02:28:10.060Z,14.50
2018-09-03T02:31:07.856Z,14.50
2018-09-03T02:34:06.717Z,14.40
2018-09-03T02:37:04.619Z,14.50
2018-09-03T02:40:02.223Z,14.40
2018-09-03T02:43:31.478Z,14.40
2018-09-03T02:46:29.254Z,14.40
2018-09-03T02:49:27.200Z,14.30
2018-09-03T02:52:25.898Z,14.30
2018-09-03T02:55:23.703Z,14.30
2018-09-03T02:58:21.712Z,14.30
2018-09-03T03:01:19.535Z,14.20
2018-09-03T03:04:17.233Z,14.20
2018-09-03T03:07:15.010Z,14.20
2018-09-03T03:10:12.633Z,14.20
2018-09-03T03:13:10.447Z,14.20
2018-09-03T03:16:08.243Z,14.20
2018-09-03T03:19:06.089Z,14.20
2018-09-03T03:22:03.770Z,14.20
2018-09-03T03:25:01.591Z,14.30
2018-09-03T03:27:59.391Z,14.20
2018-09-03T03:30:56.969Z,14.20
2018-09-03T03:33:54.737Z,14.20
2018-09-03T03:36:52.346Z,14.10
2018-09-03T03:39:50.274Z,14.10
2018-09-03T03:42:47.945Z,14.00
2018-09-03T03:45:45.434Z,13.90
2018-09-03T03:48:43.436Z,14.00
2018-09-03T03:51:40.971Z,14.00
2018-09-03T03:54:38.771Z,13.90
2018-09-03T03:57:36.479Z,14.00
2018-09-03T04:00:34.261Z,14.00
2018-09-03T04:03:32.130Z,13.90
2018-09-03T04:06:29.626Z,14.00
2018-09-03T04:09:29.466Z,14.10
2018-09-03T04:12:27.415Z,14.00
2018-09-03T04:15:25.289Z,14.10
2018-09-03T04:18:22.723Z,14.00
2018-09-03T04:21:20.317Z,14.00
2018-09-03T04:24:17.959Z,14.00
2018-09-03T04:27:15.652Z,14.10
2018-09-03T04:30:13.409Z,14.20
2018-09-03T04:33:11.306Z,14.20
2018-09-03T04:36:10.146Z,14.20
2018-09-03T04:39:13.764Z,14.30
2018-09-03T04:42:11.623Z,14.30
2018-09-03T04:45:09.425Z,14.30
2018-09-03T04:48:07.160Z,14.40
2018-09-03T04:51:04.682Z,14.40
2018-09-03T04:54:02.492Z,14.50
2018-09-03T04:57:00.016Z,14.60
2018-09-03T04:59:57.802Z,14.70
2018-09-03T05:02:56.537Z,14.80
2018-09-03T05:05:54.416Z,15.00
2018-09-03T05:08:51.964Z,15.10
2018-09-03T05:11:49.518Z,15.20
2018-09-03T05:14:47.530Z,15.20
2018-09-03T05:17:45.981Z,15.30
2018-09-03T05:20:43.574Z,15.30
2018-09-03T05:23:41.834Z,15.40
2018-09-03T05:26:39.023Z,15.50
2018-09-03T05:29:36.717Z,15.60
2018-09-03T05:32:34.524Z,15.60
2018-09-03T05:35:32.323Z,15.70
2018-09-03T05:38:29.866Z,15.80
2018-09-03T05:41:27.420Z,15.90
2018-09-03T05:44:25.444Z,16.00
2018-09-03T05:47:22.985Z,16.10
2018-09-03T05:50:20.590Z,16.20
2018-09-03T05:53:18.172Z,16.30
2018-09-03T05:56:15.897Z,16.40
2018-09-03T05:59:13.557Z,16.60
2018-09-03T06:02:11.272Z,16.70
2018-09-03T06:05:09.006Z,16.90
2018-09-03T06:08:06.683Z,17.10
2018-09-03T06:11:04.706Z,17.20
2018-09-03T06:14:02.567Z,17.40
2018-09-03T06:17:00.281Z,17.50
2018-09-03T06:19:57.984Z,17.80
2018-09-03T06:22:55.647Z,19.00
2018-09-03T06:25:53.217Z,21.00
2018-09-03T06:28:50.945Z,23.30
2018-09-03T06:31:48.664Z,24.10
2018-09-03T06:34:46.339Z,25.20
2018-09-03T06:37:44.233Z,26.40
2018-09-03T06:40:42.087Z,26.40
2018-09-03T06:43:39.616Z,26.90
2018-09-03T06:46:37.072Z,27.10
2018-09-03T06:49:34.693Z,27.40
2018-09-03T06:52:32.534Z,27.30
2018-09-03T06:55:30.355Z,27.00
2018-09-03T06:58:28.231Z,27.40
2018-09-03T07:01:25.871Z,28.20
2018-09-03T07:04:24.429Z,27.90
2018-09-03T07:07:22.214Z,26.80
2018-09-03T07:10:21.084Z,26.80
2018-09-03T07:13:19.024Z,26.90
2018-09-03T07:16:16.814Z,27.30
2018-09-03T07:19:14.510Z,27.00
2018-09-03T07:22:12.251Z,27.00
2018-09-03T07:25:10.106Z,27.70
2018-09-03T07:28:09.300Z,28.00
2018-09-03T07:31:07.539Z,27.90
2018-09-03T07:34:05.204Z,27.70
2018-09-03T07:37:02.594Z,27.40
2018-09-03T07:40:00.820Z,28.60
2018-09-03T07:42:58.071Z,28.60
2018-09-03T07:45:55.855Z,29.30
2018-09-03T07:48:53.436Z,29.00
2018-09-03T07:51:51.077Z,29.00
2018-09-03T07:54:48.828Z,28.70
2018-09-03T07:57:46.488Z,29.00
2018-09-03T08:00:43.989Z,29.00
2018-09-03T08:03:41.499Z,28.80
2018-09-03T08:06:39.131Z,30.20
2018-09-03T08:09:36.861Z,31.00
2018-09-03T08:12:34.555Z,30.00
2018-09-03T08:15:32.207Z,30.40
2018-09-03T08:18:30.107Z,29.50
2018-09-03T08:21:28.828Z,29.20
2018-09-03T08:24:26.607Z,30.20
2018-09-03T08:27:24.254Z,29.70
2018-09-03T08:30:21.867Z,29.60
2018-09-03T08:33:19.575Z,29.90
2018-09-03T08:36:17.377Z,30.00
2018-09-03T08:39:15.089Z,30.40
2018-09-03T08:42:13.166Z,30.00
2018-09-03T08:45:10.975Z,30.30
2018-09-03T08:48:08.628Z,30.80
2018-09-03T08:51:06.497Z,30.80
2018-09-03T08:54:04.113Z,30.00
2018-09-03T08:57:01.588Z,30.50
2018-09-03T08:59:59.448Z,30.50
2018-09-03T09:02:58.852Z,31.00
2018-09-03T09:05:56.653Z,31.60
2018-09-03T09:08:54.285Z,31.70
2018-09-03T09:11:52.019Z,31.60
2018-09-03T09:14:49.663Z,32.40
2018-09-03T09:17:47.645Z,32.30
2018-09-03T09:20:45.523Z,31.80
2018-09-03T09:23:43.094Z,32.30
2018-09-03T09:26:40.716Z,32.50
2018-09-03T09:29:38.438Z,31.00
2018-09-03T09:32:36.228Z,31.30
2018-09-03T09:35:33.953Z,32.20
2018-09-03T09:38:31.560Z,33.40
2018-09-03T09:41:29.215Z,32.30
2018-09-03T09:44:26.937Z,30.90
2018-09-03T09:47:24.863Z,30.30
2018-09-03T09:50:22.705Z,29.90
2018-09-03T09:53:20.455Z,30.20
2018-09-03T09:56:18.517Z,29.90
2018-09-03T09:59:16.309Z,30.80
2018-09-03T10:02:14.061Z,31.40
2018-09-03T10:05:11.681Z,32.20
2018-09-03T10:08:09.437Z,31.90
2018-09-03T10:11:07.256Z,32.40
2018-09-03T10:14:06.035Z,33.00
2018-09-03T10:17:03.786Z,33.30
2018-09-03T10:20:01.556Z,32.80
2018-09-03T10:22:59.363Z,33.00
2018-09-03T10:25:57.100Z,32.00
2018-09-03T10:28:55.020Z,31.30
2018-09-03T10:31:52.694Z,31.80
2018-09-03T10:34:51.595Z,31.10
2018-09-03T10:37:50.412Z,31.00
2018-09-03T10:40:48.130Z,31.50
2018-09-03T10:43:45.849Z,31.00
2018-09-03T10:46:43.577Z,28.20
2018-09-03T10:49:41.135Z,27.00
2018-09-03T10:52:38.949Z,27.20
2018-09-03T10:55:37.529Z,27.10
2018-09-03T10:58:35.196Z,27.50
2018-09-03T11:01:32.598Z,27.60
2018-09-03T11:04:30.346Z,27.00
2018-09-03T11:07:27.942Z,26.10
2018-09-03T11:10:25.987Z,25.20
2018-09-03T11:13:23.579Z,24.70
2018-09-03T11:16:21.017Z,24.70
2018-09-03T11:19:18.624Z,25.00
2018-09-03T11:22:16.428Z,25.10
2018-09-03T11:25:13.840Z,25.10
2018-09-03T11:28:11.464Z,25.10
2018-09-03T11:31:09.051Z,25.20
2018-09-03T11:34:06.759Z,25.10
2018-09-03T11:37:04.538Z,25.40
2018-09-03T11:40:02.228Z,25.30
2018-09-03T11:42:59.898Z,25.40
2018-09-03T11:45:57.549Z,25.40
2018-09-03T11:48:55.119Z,25.30
2018-09-03T11:51:52.865Z,24.70
2018-09-03T11:54:51.561Z,24.70
2018-09-03T11:57:49.278Z,25.00
2018-09-03T12:00:47.091Z,25.10
2018-09-03T12:03:44.732Z,24.60
2018-09-03T12:06:42.500Z,24.40
2018-09-03T12:09:40.030Z,24.30
2018-09-03T12:12:38.748Z,23.90
2018-09-03T12:15:51.658Z,23.70
2018-09-03T12:18:50.277Z,23.50
2018-09-03T12:21:47.874Z,23.40
2018-09-03T12:24:45.608Z,23.40
2018-09-03T12:27:43.290Z,23.60
2018-09-03T12:30:40.969Z,23.40
2018-09-03T12:33:38.732Z,23.40
2018-09-03T12:36:36.207Z,23.70
2018-09-03T12:39:33.786Z,24.90
2018-09-03T12:42:31.411Z,25.60
2018-09-03T12:45:34.173Z,25.80
2018-09-03T12:48:31.687Z,25.70
2018-09-03T12:51:29.631Z,25.90
2018-09-03T12:54:27.369Z,25.50
2018-09-03T12:57:25.116Z,25.00
2018-09-03T13:00:26.946Z,24.90
2018-09-03T13:03:24.727Z,24.40
2018-09-03T13:06:22.221Z,24.20
2018-09-03T13:09:20.836Z,24.40
2018-09-03T13:12:18.500Z,24.80
2018-09-03T13:15:16.261Z,24.90
2018-09-03T13:18:13.838Z,25.30
2018-09-03T13:21:11.639Z,25.20
2018-09-03T13:24:09.489Z,24.90
2018-09-03T13:27:07.164Z,25.00
2018-09-03T13:30:05.017Z,25.60
2018-09-03T13:33:02.644Z,25.70
2018-09-03T13:36:00.423Z,25.90
2018-09-03T13:38:58.041Z,25.90
2018-09-03T13:41:55.861Z,24.70
2018-09-03T13:44:53.633Z,24.10
2018-09-03T13:47:51.179Z,23.90
2018-09-03T13:50:49.134Z,23.80
2018-09-03T13:53:47.707Z,23.90
2018-09-03T13:56:46.543Z,24.00
2018-09-03T13:59:44.233Z,23.90
2018-09-03T14:02:41.929Z,23.70
2018-09-03T14:05:39.545Z,23.90
2018-09-03T14:08:37.209Z,23.90
2018-09-03T14:11:35.965Z,23.70
2018-09-03T14:14:33.599Z,23.60
2018-09-03T14:17:35.029Z,23.50
2018-09-03T14:20:34.113Z,23.30
2018-09-03T14:23:32.978Z,23.20
2018-09-03T14:26:32.926Z,23.20
2018-09-03T14:29:43.317Z,23.30
2018-09-03T14:32:41.171Z,23.30
2018-09-03T14:35:40.075Z,23.30
2018-09-03T14:38:37.828Z,23.30
2018-09-03T14:41:35.693Z,23.30
2018-09-03T14:44:33.506Z,23.20
2018-09-03T14:47:31.370Z,23.00
2018-09-03T14:50:29.372Z,22.90
2018-09-03T14:53:28.067Z,22.90
2018-09-03T14:56:27.089Z,22.80
2018-09-03T14:59:24.616Z,22.70
2018-09-03T15:02:22.469Z,22.70
2018-09-03T15:05:20.087Z,22.70
2018-09-03T15:08:18.883Z,22.70
2018-09-03T15:11:16.766Z,22.70
2018-09-03T15:14:15.591Z,22.70
2018-09-03T15:17:13.922Z,22.50
2018-09-03T15:20:12.619Z,22.40
2018-09-03T15:23:10.109Z,22.40
2018-09-03T15:26:07.815Z,22.30
2018-09-03T15:29:05.649Z,22.30
2018-09-03T15:32:05.381Z,22.30
2018-09-03T15:35:03.074Z,22.30
2018-09-03T15:38:02.041Z,22.30
2018-09-03T15:40:59.703Z,22.30
2018-09-03T15:43:58.030Z,22.30
2018-09-03T15:46:56.007Z,22.20
2018-09-03T15:49:53.739Z,22.30
2018-09-03T15:52:51.502Z,22.20
2018-09-03T15:55:59.177Z,22.20
2018-09-03T15:58:56.644Z,22.10
2018-09-03T16:01:54.371Z,22.10
2018-09-03T16:04:52.010Z,22.10
2018-09-03T16:07:49.795Z,22.10
2018-09-03T16:10:47.756Z,22.10
2018-09-03T16:13:45.468Z,22.00
2018-09-03T16:16:43.517Z,22.00
2018-09-03T16:19:42.126Z,21.90
2018-09-03T16:22:41.759Z,21.90
2018-09-03T16:25:39.695Z,21.90
2018-09-03T16:28:37.614Z,21.90
2018-09-03T16:31:35.704Z,21.80
2018-09-03T16:34:33.393Z,21.90
2018-09-03T16:37:31.249Z,21.80
2018-09-03T16:40:29.880Z,21.80
2018-09-03T16:43:28.494Z,21.70
2018-09-03T16:46:27.232Z,21.60
2018-09-03T16:49:25.080Z,21.60
2018-09-03T16:52:22.879Z,21.50
2018-09-03T16:55:20.905Z,21.40
2018-09-03T16:58:18.556Z,21.40
2018-09-03T17:01:17.551Z,21.20
2018-09-03T17:04:15.190Z,21.10
2018-09-03T17:07:12.819Z,21.00
2018-09-03T17:10:10.629Z,21.00
2018-09-03T17:13:09.289Z,20.80
2018-09-03T17:16:06.768Z,20.80
2018-09-03T17:19:05.531Z,20.70
2018-09-03T17:22:04.355Z,20.60
2018-09-03T17:25:02.139Z,20.50
2018-09-03T17:28:01.007Z,20.40
2018-09-03T17:30:58.666Z,20.30
2018-09-03T17:33:56.249Z,20.30
2018-09-03T17:36:53.919Z,20.20
2018-09-03T17:39:51.663Z,20.10
2018-09-03T17:42:49.536Z,20.00
2018-09-03T17:45:47.273Z,19.90
2018-09-03T17:48:45.206Z,19.90
2018-09-03T17:51:43.024Z,19.80
2018-09-03T17:54:40.566Z,19.70
2018-09-03T17:57:38.552Z,19.70
2018-09-03T18:00:36.195Z,19.60
2018-09-03T18:03:33.838Z,19.50
2018-09-03T18:06:31.923Z,19.40
2018-09-03T18:09:29.800Z,19.30
2018-09-03T18:12:27.932Z,19.30
2018-09-03T18:15:25.518Z,19.20
2018-09-03T18:18:23.341Z,19.10
2018-09-03T18:21:21.106Z,19.10
2018-09-03T18:24:19.347Z,19.00
2018-09-03T18:27:16.806Z,19.00
2018-09-03T18:30:14.771Z,18.90
2018-09-03T18:33:12.404Z,18.80
2018-09-03T18:36:10.018Z,18.80
2018-09-03T18:39:09.765Z,18.70
2018-09-03T18:42:08.621Z,18.70
2018-09-03T18:45:06.493Z,18.70
2018-09-03T18:48:05.246Z,18.60
2018-09-03T18:51:03.020Z,18.50
2018-09-03T18:54:01.118Z,18.50
2018-09-03T18:56:58.714Z,18.50
2018-09-03T18:59:56.469Z,18.40
2018-09-03T19:02:54.412Z,18.40
2018-09-03T19:05:52.118Z,18.30
2018-09-03T19:08:49.735Z,18.30
2018-09-03T19:11:48.420Z,18.30
2018-09-03T19:14:46.270Z,18.20
2018-09-03T19:17:43.767Z,18.20
2018-09-03T19:20:41.639Z,18.10
2018-09-03T19:23:39.507Z,18.10
2018-09-03T19:26:37.181Z,18.10
2018-09-03T19:29:34.959Z,18.00
2018-09-03T19:32:32.956Z,18.00
2018-09-03T19:35:31.634Z,18.00
2018-09-03T19:38:29.256Z,17.90
2018-09-03T19:41:27.345Z,17.90
2018-09-03T19:44:24.877Z,17.90
2018-09-03T19:47:22.761Z,17.80
2018-09-03T19:50:20.709Z,17.80
2018-09-03T19:53:18.558Z,17.70
2018-09-03T19:56:16.514Z,17.70
2018-09-03T19:59:14.456Z,17.60
2018-09-03T20:02:12.314Z,17.70
2018-09-03T20:05:09.998Z,17.60
2018-09-03T20:08:08.042Z,17.50
2018-09-03T20:11:05.650Z,17.40
2018-09-03T20:14:03.839Z,17.40
2018-09-03T20:17:01.838Z,17.30
2018-09-03T20:20:00.705Z,17.30
2018-09-03T20:22:58.772Z,17.40
2018-09-03T20:25:56.452Z,17.30
2018-09-03T20:28:54.242Z,17.20
2018-09-03T20:31:51.999Z,17.20
2018-09-03T20:34:49.873Z,17.20
2018-09-03T20:37:47.640Z,17.20
2018-09-03T20:40:45.392Z,17.10
2018-09-03T20:43:43.155Z,17.10
2018-09-03T20:46:40.927Z,17.00
2018-09-03T20:49:38.694Z,17.20
2018-09-03T20:52:36.345Z,17.10
2018-09-03T20:55:33.846Z,17.10
2018-09-03T20:58:31.780Z,17.10
2018-09-03T21:01:29.576Z,17.10
2018-09-03T21:04:27.609Z,17.00
2018-09-03T21:07:25.593Z,16.90
2018-09-03T21:10:23.360Z,16.80
2018-09-03T21:13:21.142Z,16.70
2018-09-03T21:16:18.903Z,16.70
2018-09-03T21:19:16.648Z,16.80
2018-09-03T21:22:14.418Z,16.80
2018-09-03T21:25:12.241Z,16.70
2018-09-03T21:28:09.966Z,16.60
2018-09-03T21:31:07.631Z,16.60
2018-09-03T21:34:05.475Z,16.60
2018-09-03T21:37:03.003Z,16.40
2018-09-03T21:40:01.056Z,16.30
2018-09-03T21:42:58.946Z,16.30
2018-09-03T21:45:56.725Z,16.30
2018-09-03T21:48:54.556Z,16.30
2018-09-03T21:51:52.347Z,16.20
2018-09-03T21:54:49.926Z,16.10
2018-09-03T21:57:47.757Z,16.10
2018-09-03T22:00:45.654Z,16.10
2018-09-03T22:03:43.448Z,16.10
2018-09-03T22:06:41.339Z,16.00
2018-09-03T22:09:39.078Z,16.00
2018-09-03T22:12:36.966Z,16.00
2018-09-03T22:15:34.896Z,16.10
2018-09-03T22:18:32.907Z,16.10
2018-09-03T22:21:30.438Z,16.00
2018-09-03T22:24:28.157Z,15.90
2018-09-03T22:27:25.928Z,15.90
2018-09-03T22:30:23.503Z,16.00
2018-09-03T22:33:21.092Z,16.00
2018-09-03T22:36:18.893Z,15.90
2018-09-03T22:39:16.456Z,15.80
2018-09-03T22:42:14.303Z,15.80
2018-09-03T22:45:12.133Z,15.80
2018-09-03T22:48:09.866Z,15.70
2018-09-03T22:51:07.340Z,15.70
2018-09-03T22:54:04.831Z,15.70
2018-09-03T22:57:02.572Z,15.60
2018-09-03T23:00:00.379Z,15.60
2018-09-03T23:02:57.972Z,15.50
2018-09-03T23:05:55.594Z,15.40
2018-09-03T23:08:53.323Z,15.30
2018-09-03T23:11:51.074Z,15.30
2018-09-03T23:14:48.875Z,15.30
2018-09-03T23:17:46.734Z,15.30
2018-09-03T23:20:44.530Z,15.40
2018-09-03T23:23:42.462Z,15.30
2018-09-03T23:26:40.394Z,15.40
2018-09-03T23:29:37.985Z,15.30
2018-09-03T23:32:36.047Z,15.40
2018-09-03T23:35:33.804Z,15.30
2018-09-03T23:38:31.429Z,15.20
2018-09-03T23:41:29.314Z,15.10
2018-09-03T23:44:27.034Z,15.10
2018-09-03T23:47:24.707Z,15.10
2018-09-03T23:50:22.222Z,15.00
2018-09-03T23:53:19.922Z,15.00
2018-09-03T23:56:17.522Z,15.10
2018-09-03T23:59:15.239Z,15.00
